sensor_id;sensor_type;location;lat;lon;timestamp;temperature;humidity
20795;DHT22;28087;-33.874;151.240;2022-08-16T00:01:35;18.70;99.90
20795;DHT22;28087;-33.874;151.240;2022-08-16T00:04:12;18.60;99.90
20795;DHT22;28087;-33.874;151.240;2022-08-16T00:06:50;18.60;99.90
20795;DHT22;28087;-33.874;151.240;2022-08-16T00:09:30;18.60;99.90
20795;DHT22;28087;-33.874;151.240;2022-08-16T00:12:06;18.50;99.90
20795;DHT22;28087;-33.874;151.240;2022-08-16T00:14:48;18.60;99.90
20795;DHT22;28087;-33.874;151.240;2022-08-16T00:17:27;16.70;99.90
20795;DHT22;28087;-33.874;151.240;2022-08-16T00:20:25;18.80;99.90
20795;DHT22;28087;-33.874;151.240;2022-08-16T00:23:02;19.10;99.90
20795;DHT22;28087;-33.874;151.240;2022-08-16T00:25:43;19.20;99.90
20795;DHT22;28087;-33.874;151.240;2022-08-16T00:28:39;19.20;99.90
20795;DHT22;28087;-33.874;151.240;2022-08-16T00:31:16;19.30;99.90
20795;DHT22;28087;-33.874;151.240;2022-08-16T00:33:54;19.30;99.90
20795;DHT22;28087;-33.874;151.240;2022-08-16T00:36:35;19.50;99.90
20795;DHT22;28087;-33.874;151.240;2022-08-16T00:39:18;19.60;99.90
20795;DHT22;28087;-33.874;151.240;2022-08-16T00:41:56;19.70;99.90
20795;DHT22;28087;-33.874;151.240;2022-08-16T00:44:35;19.90;99.90
20795;DHT22;28087;-33.874;151.240;2022-08-16T00:47:18;20.00;99.90
20795;DHT22;28087;-33.874;151.240;2022-08-16T00:55:11;20.20;99.90
20795;DHT22;28087;-33.874;151.240;2022-08-16T01:00:31;20.20;99.90
20795;DHT22;28087;-33.874;151.240;2022-08-16T01:03:11;20.10;99.90
20795;DHT22;28087;-33.874;151.240;2022-08-16T01:06:02;20.00;99.90
20795;DHT22;28087;-33.874;151.240;2022-08-16T01:08:59;20.00;99.90
20795;DHT22;28087;-33.874;151.240;2022-08-16T01:11:39;20.00;99.90
20795;DHT22;28087;-33.874;151.240;2022-08-16T01:14:31;20.10;99.90
20795;DHT22;28087;-33.874;151.240;2022-08-16T01:19:56;20.00;99.90
20795;DHT22;28087;-33.874;151.240;2022-08-16T01:22:59;19.90;99.90
20795;DHT22;28087;-33.874;151.240;2022-08-16T01:25:44;19.80;99.90
20795;DHT22;28087;-33.874;151.240;2022-08-16T01:28:42;19.90;99.90
20795;DHT22;28087;-33.874;151.240;2022-08-16T01:31:20;19.80;99.90
20795;DHT22;28087;-33.874;151.240;2022-08-16T01:34:02;19.90;99.90
20795;DHT22;28087;-33.874;151.240;2022-08-16T01:37:00;19.90;99.90
20795;DHT22;28087;-33.874;151.240;2022-08-16T01:39:41;19.90;99.90
20795;DHT22;28087;-33.874;151.240;2022-08-16T01:42:22;19.90;99.90
20795;DHT22;28087;-33.874;151.240;2022-08-16T01:45:00;20.00;99.90
20795;DHT22;28087;-33.874;151.240;2022-08-16T01:47:39;20.10;99.90
20795;DHT22;28087;-33.874;151.240;2022-08-16T01:50:23;20.30;99.90
20795;DHT22;28087;-33.874;151.240;2022-08-16T01:53:21;20.40;99.90
20795;DHT22;28087;-33.874;151.240;2022-08-16T01:56:21;20.40;99.90
20795;DHT22;28087;-33.874;151.240;2022-08-16T01:59:03;20.40;99.90
20795;DHT22;28087;-33.874;151.240;2022-08-16T02:01:48;20.60;99.90
20795;DHT22;28087;-33.874;151.240;2022-08-16T02:04:33;20.60;99.90
20795;DHT22;28087;-33.874;151.240;2022-08-16T02:07:25;20.70;99.90
20795;DHT22;28087;-33.874;151.240;2022-08-16T02:10:02;20.60;99.90
20795;DHT22;28087;-33.874;151.240;2022-08-16T02:12:44;20.60;99.90
20795;DHT22;28087;-33.874;151.240;2022-08-16T02:15:34;20.70;99.90
20795;DHT22;28087;-33.874;151.240;2022-08-16T02:18:15;20.70;99.90
20795;DHT22;28087;-33.874;151.240;2022-08-16T02:20:52;20.80;99.90
20795;DHT22;28087;-33.874;151.240;2022-08-16T02:23:30;20.90;99.90
20795;DHT22;28087;-33.874;151.240;2022-08-16T02:26:10;20.90;99.90
20795;DHT22;28087;-33.874;151.240;2022-08-16T02:28:48;20.90;99.90
20795;DHT22;28087;-33.874;151.240;2022-08-16T02:31:29;21.00;99.90
20795;DHT22;28087;-33.874;151.240;2022-08-16T02:34:27;21.00;99.90
20795;DHT22;28087;-33.874;151.240;2022-08-16T02:37:13;20.80;99.90
20795;DHT22;28087;-33.874;151.240;2022-08-16T02:39:51;20.80;99.90
20795;DHT22;28087;-33.874;151.240;2022-08-16T02:42:33;20.70;99.90
20795;DHT22;28087;-33.874;151.240;2022-08-16T02:45:11;20.70;99.90
20795;DHT22;28087;-33.874;151.240;2022-08-16T02:47:50;20.70;99.90
20795;DHT22;28087;-33.874;151.240;2022-08-16T02:50:47;20.60;99.90
20795;DHT22;28087;-33.874;151.240;2022-08-16T02:53:45;20.60;99.90
20795;DHT22;28087;-33.874;151.240;2022-08-16T02:56:25;20.50;99.90
20795;DHT22;28087;-33.874;151.240;2022-08-16T02:59:03;20.50;99.90
20795;DHT22;28087;-33.874;151.240;2022-08-16T03:01:45;20.50;99.90
20795;DHT22;28087;-33.874;151.240;2022-08-16T03:04:31;20.60;99.90
20795;DHT22;28087;-33.874;151.240;2022-08-16T03:07:24;20.70;99.90
20795;DHT22;28087;-33.874;151.240;2022-08-16T03:10:09;20.80;99.90
20795;DHT22;28087;-33.874;151.240;2022-08-16T03:12:49;20.80;99.90
20795;DHT22;28087;-33.874;151.240;2022-08-16T03:15:30;20.80;99.90
20795;DHT22;28087;-33.874;151.240;2022-08-16T03:18:06;20.80;99.90
20795;DHT22;28087;-33.874;151.240;2022-08-16T03:21:06;20.90;99.90
20795;DHT22;28087;-33.874;151.240;2022-08-16T03:23:49;21.10;99.90
20795;DHT22;28087;-33.874;151.240;2022-08-16T03:26:30;21.00;99.90
20795;DHT22;28087;-33.874;151.240;2022-08-16T03:29:08;21.20;99.90
20795;DHT22;28087;-33.874;151.240;2022-08-16T03:31:48;21.30;99.90
20795;DHT22;28087;-33.874;151.240;2022-08-16T03:34:30;21.40;99.90
20795;DHT22;28087;-33.874;151.240;2022-08-16T03:37:12;21.30;99.90
20795;DHT22;28087;-33.874;151.240;2022-08-16T03:39:51;21.10;99.90
20795;DHT22;28087;-33.874;151.240;2022-08-16T03:42:35;20.90;99.90
20795;DHT22;28087;-33.874;151.240;2022-08-16T03:45:32;20.80;99.90
20795;DHT22;28087;-33.874;151.240;2022-08-16T03:48:11;20.60;99.90
20795;DHT22;28087;-33.874;151.240;2022-08-16T03:50:50;20.50;99.90
20795;DHT22;28087;-33.874;151.240;2022-08-16T03:53:37;20.50;99.90
20795;DHT22;28087;-33.874;151.240;2022-08-16T03:58:53;20.50;99.90
20795;DHT22;28087;-33.874;151.240;2022-08-16T04:01:35;20.60;99.90
20795;DHT22;28087;-33.874;151.240;2022-08-16T04:04:13;20.50;99.90
20795;DHT22;28087;-33.874;151.240;2022-08-16T04:07:06;20.50;99.90
20795;DHT22;28087;-33.874;151.240;2022-08-16T04:09:48;20.60;99.90
20795;DHT22;28087;-33.874;151.240;2022-08-16T04:12:27;20.60;99.90
20795;DHT22;28087;-33.874;151.240;2022-08-16T04:15:25;20.60;99.90
20795;DHT22;28087;-33.874;151.240;2022-08-16T04:18:29;20.60;99.90
20795;DHT22;28087;-33.874;151.240;2022-08-16T04:21:09;20.50;99.90
20795;DHT22;28087;-33.874;151.240;2022-08-16T04:24:02;20.50;99.90
20795;DHT22;28087;-33.874;151.240;2022-08-16T04:26:41;20.40;99.90
20795;DHT22;28087;-33.874;151.240;2022-08-16T04:29:20;20.40;99.90
20795;DHT22;28087;-33.874;151.240;2022-08-16T04:37:40;20.90;99.90
20795;DHT22;28087;-33.874;151.240;2022-08-16T04:40:33;20.80;99.90
20795;DHT22;28087;-33.874;151.240;2022-08-16T04:43:14;20.80;99.90
20795;DHT22;28087;-33.874;151.240;2022-08-16T04:45:51;20.80;99.90
20795;DHT22;28087;-33.874;151.240;2022-08-16T04:48:39;20.70;99.90
20795;DHT22;28087;-33.874;151.240;2022-08-16T04:51:17;20.40;99.90
20795;DHT22;28087;-33.874;151.240;2022-08-16T04:53:56;20.30;99.90
20795;DHT22;28087;-33.874;151.240;2022-08-16T04:56:35;20.30;99.90
20795;DHT22;28087;-33.874;151.240;2022-08-16T04:59:18;20.20;99.90
20795;DHT22;28087;-33.874;151.240;2022-08-16T05:01:59;20.00;99.90
20795;DHT22;28087;-33.874;151.240;2022-08-16T05:04:57;20.10;99.90
20795;DHT22;28087;-33.874;151.240;2022-08-16T05:07:34;20.10;99.90
20795;DHT22;28087;-33.874;151.240;2022-08-16T05:10:32;20.10;99.90
20795;DHT22;28087;-33.874;151.240;2022-08-16T05:13:09;20.10;99.90
20795;DHT22;28087;-33.874;151.240;2022-08-16T05:15:48;20.10;99.90
20795;DHT22;28087;-33.874;151.240;2022-08-16T05:18:27;20.00;99.90
20795;DHT22;28087;-33.874;151.240;2022-08-16T05:21:05;19.80;99.90
20795;DHT22;28087;-33.874;151.240;2022-08-16T05:23:50;19.80;99.90
20795;DHT22;28087;-33.874;151.240;2022-08-16T05:26:33;19.70;99.90
20795;DHT22;28087;-33.874;151.240;2022-08-16T05:29:20;19.70;99.90
20795;DHT22;28087;-33.874;151.240;2022-08-16T05:32:23;19.60;99.90
20795;DHT22;28087;-33.874;151.240;2022-08-16T05:35:07;19.50;99.90
20795;DHT22;28087;-33.874;151.240;2022-08-16T05:38:06;19.50;99.90
20795;DHT22;28087;-33.874;151.240;2022-08-16T05:41:07;19.50;99.90
20795;DHT22;28087;-33.874;151.240;2022-08-16T05:43:47;19.40;99.90
20795;DHT22;28087;-33.874;151.240;2022-08-16T05:46:38;19.40;99.90
20795;DHT22;28087;-33.874;151.240;2022-08-16T05:49:22;19.30;99.90
20795;DHT22;28087;-33.874;151.240;2022-08-16T05:52:13;19.30;99.90
20795;DHT22;28087;-33.874;151.240;2022-08-16T05:54:52;19.20;99.90
20795;DHT22;28087;-33.874;151.240;2022-08-16T05:57:35;19.10;99.90
20795;DHT22;28087;-33.874;151.240;2022-08-16T06:00:24;19.20;99.90
20795;DHT22;28087;-33.874;151.240;2022-08-16T06:03:00;19.20;99.90
20795;DHT22;28087;-33.874;151.240;2022-08-16T06:06:00;19.20;99.90
20795;DHT22;28087;-33.874;151.240;2022-08-16T06:08:40;19.10;99.90
20795;DHT22;28087;-33.874;151.240;2022-08-16T06:11:18;19.10;99.90
20795;DHT22;28087;-33.874;151.240;2022-08-16T06:14:00;19.10;99.90
20795;DHT22;28087;-33.874;151.240;2022-08-16T06:16:42;19.10;99.90
20795;DHT22;28087;-33.874;151.240;2022-08-16T06:19:23;19.10;99.90
20795;DHT22;28087;-33.874;151.240;2022-08-16T06:22:15;19.00;99.90
20795;DHT22;28087;-33.874;151.240;2022-08-16T06:25:12;19.00;99.90
20795;DHT22;28087;-33.874;151.240;2022-08-16T06:28:07;19.00;99.90
20795;DHT22;28087;-33.874;151.240;2022-08-16T06:36:24;18.80;99.90
20795;DHT22;28087;-33.874;151.240;2022-08-16T06:39:15;18.80;99.90
20795;DHT22;28087;-33.874;151.240;2022-08-16T06:42:00;18.70;99.90
20795;DHT22;28087;-33.874;151.240;2022-08-16T06:44:56;18.60;99.90
20795;DHT22;28087;-33.874;151.240;2022-08-16T06:47:41;18.60;99.90
20795;DHT22;28087;-33.874;151.240;2022-08-16T06:50:30;18.50;99.90
20795;DHT22;28087;-33.874;151.240;2022-08-16T06:53:11;18.50;99.90
20795;DHT22;28087;-33.874;151.240;2022-08-16T06:56:07;18.50;99.90
20795;DHT22;28087;-33.874;151.240;2022-08-16T06:59:04;18.40;99.90
20795;DHT22;28087;-33.874;151.240;2022-08-16T07:01:49;18.30;99.90
20795;DHT22;28087;-33.874;151.240;2022-08-16T07:04:30;18.30;99.90
20795;DHT22;28087;-33.874;151.240;2022-08-16T07:07:16;18.20;99.90
20795;DHT22;28087;-33.874;151.240;2022-08-16T07:10:06;18.20;99.90
20795;DHT22;28087;-33.874;151.240;2022-08-16T07:12:46;18.20;99.90
20795;DHT22;28087;-33.874;151.240;2022-08-16T07:15:43;18.20;99.90
20795;DHT22;28087;-33.874;151.240;2022-08-16T07:18:27;18.10;99.90
20795;DHT22;28087;-33.874;151.240;2022-08-16T07:21:06;18.10;99.90
20795;DHT22;28087;-33.874;151.240;2022-08-16T07:23:45;18.10;99.90
20795;DHT22;28087;-33.874;151.240;2022-08-16T07:26:28;18.00;99.90
20795;DHT22;28087;-33.874;151.240;2022-08-16T07:29:08;18.00;99.90
20795;DHT22;28087;-33.874;151.240;2022-08-16T07:31:45;18.00;99.90
20795;DHT22;28087;-33.874;151.240;2022-08-16T07:34:25;18.00;99.90
20795;DHT22;28087;-33.874;151.240;2022-08-16T07:37:08;17.90;99.90
20795;DHT22;28087;-33.874;151.240;2022-08-16T07:40:02;17.90;99.90
20795;DHT22;28087;-33.874;151.240;2022-08-16T07:42:46;17.80;99.90
20795;DHT22;28087;-33.874;151.240;2022-08-16T07:45:26;17.80;99.90
20795;DHT22;28087;-33.874;151.240;2022-08-16T07:48:05;17.80;99.90
20795;DHT22;28087;-33.874;151.240;2022-08-16T07:50:48;17.70;99.90
20795;DHT22;28087;-33.874;151.240;2022-08-16T07:53:33;17.60;99.90
20795;DHT22;28087;-33.874;151.240;2022-08-16T07:56:16;17.60;99.90
20795;DHT22;28087;-33.874;151.240;2022-08-16T07:59:06;17.60;99.90
20795;DHT22;28087;-33.874;151.240;2022-08-16T08:01:46;17.50;99.90
20795;DHT22;28087;-33.874;151.240;2022-08-16T08:04:28;17.50;99.90
20795;DHT22;28087;-33.874;151.240;2022-08-16T08:07:10;17.50;99.90
20795;DHT22;28087;-33.874;151.240;2022-08-16T08:09:47;17.50;99.90
20795;DHT22;28087;-33.874;151.240;2022-08-16T08:12:23;17.50;99.90
20795;DHT22;28087;-33.874;151.240;2022-08-16T08:15:10;17.40;99.90
20795;DHT22;28087;-33.874;151.240;2022-08-16T08:17:59;17.40;99.90
20795;DHT22;28087;-33.874;151.240;2022-08-16T08:20:55;17.40;99.90
20795;DHT22;28087;-33.874;151.240;2022-08-16T08:23:35;17.40;99.90
20795;DHT22;28087;-33.874;151.240;2022-08-16T08:26:13;17.40;99.90
20795;DHT22;28087;-33.874;151.240;2022-08-16T08:28:51;17.30;99.90
20795;DHT22;28087;-33.874;151.240;2022-08-16T08:31:32;17.30;99.90
20795;DHT22;28087;-33.874;151.240;2022-08-16T08:34:14;17.30;99.90
20795;DHT22;28087;-33.874;151.240;2022-08-16T08:36:51;17.30;99.90
20795;DHT22;28087;-33.874;151.240;2022-08-16T08:39:40;17.30;99.90
20795;DHT22;28087;-33.874;151.240;2022-08-16T08:42:25;17.30;99.90
20795;DHT22;28087;-33.874;151.240;2022-08-16T08:45:06;17.20;99.90
20795;DHT22;28087;-33.874;151.240;2022-08-16T08:48:07;17.20;99.90
20795;DHT22;28087;-33.874;151.240;2022-08-16T08:51:10;17.20;99.90
20795;DHT22;28087;-33.874;151.240;2022-08-16T08:53:59;17.20;99.90
20795;DHT22;28087;-33.874;151.240;2022-08-16T08:56:39;17.60;99.90
20795;DHT22;28087;-33.874;151.240;2022-08-16T08:59:30;17.20;99.90
20795;DHT22;28087;-33.874;151.240;2022-08-16T09:02:18;17.30;99.90
20795;DHT22;28087;-33.874;151.240;2022-08-16T09:04:59;17.00;99.90
20795;DHT22;28087;-33.874;151.240;2022-08-16T09:07:56;17.00;99.90
20795;DHT22;28087;-33.874;151.240;2022-08-16T09:10:50;17.00;99.90
20795;DHT22;28087;-33.874;151.240;2022-08-16T09:13:34;17.00;99.90
20795;DHT22;28087;-33.874;151.240;2022-08-16T09:16:20;17.00;99.90
20795;DHT22;28087;-33.874;151.240;2022-08-16T09:19:18;17.00;99.90
20795;DHT22;28087;-33.874;151.240;2022-08-16T09:22:04;16.90;99.90
20795;DHT22;28087;-33.874;151.240;2022-08-16T09:24:53;16.90;99.90
20795;DHT22;28087;-33.874;151.240;2022-08-16T09:27:44;16.90;99.90
20795;DHT22;28087;-33.874;151.240;2022-08-16T09:30:34;16.80;99.90
20795;DHT22;28087;-33.874;151.240;2022-08-16T09:33:16;16.80;99.90
20795;DHT22;28087;-33.874;151.240;2022-08-16T09:35:55;16.80;99.90
20795;DHT22;28087;-33.874;151.240;2022-08-16T09:38:33;16.80;99.90
20795;DHT22;28087;-33.874;151.240;2022-08-16T09:41:13;16.80;99.90
20795;DHT22;28087;-33.874;151.240;2022-08-16T09:43:52;16.80;99.90
20795;DHT22;28087;-33.874;151.240;2022-08-16T09:46:49;16.80;99.90
20795;DHT22;28087;-33.874;151.240;2022-08-16T09:49:29;16.70;99.90
20795;DHT22;28087;-33.874;151.240;2022-08-16T09:52:11;16.70;99.90
20795;DHT22;28087;-33.874;151.240;2022-08-16T09:54:52;16.70;99.90
20795;DHT22;28087;-33.874;151.240;2022-08-16T09:57:32;16.60;99.90
20795;DHT22;28087;-33.874;151.240;2022-08-16T10:00:11;16.60;99.90
20795;DHT22;28087;-33.874;151.240;2022-08-16T10:03:09;16.60;99.90
20795;DHT22;28087;-33.874;151.240;2022-08-16T10:05:47;16.60;99.90
20795;DHT22;28087;-33.874;151.240;2022-08-16T10:08:26;16.60;99.90
20795;DHT22;28087;-33.874;151.240;2022-08-16T10:11:23;16.50;99.90
20795;DHT22;28087;-33.874;151.240;2022-08-16T10:14:23;16.50;99.90
20795;DHT22;28087;-33.874;151.240;2022-08-16T10:17:05;16.50;99.90
20795;DHT22;28087;-33.874;151.240;2022-08-16T10:19:45;16.50;99.90
20795;DHT22;28087;-33.874;151.240;2022-08-16T10:22:24;16.50;99.90
20795;DHT22;28087;-33.874;151.240;2022-08-16T10:25:04;16.50;99.90
20795;DHT22;28087;-33.874;151.240;2022-08-16T10:28:00;16.50;99.90
20795;DHT22;28087;-33.874;151.240;2022-08-16T10:30:58;16.40;99.90
20795;DHT22;28087;-33.874;151.240;2022-08-16T10:33:35;16.40;99.90
20795;DHT22;28087;-33.874;151.240;2022-08-16T10:36:14;16.30;99.90
20795;DHT22;28087;-33.874;151.240;2022-08-16T10:39:09;16.20;99.90
20795;DHT22;28087;-33.874;151.240;2022-08-16T10:41:47;16.20;99.90
20795;DHT22;28087;-33.874;151.240;2022-08-16T10:44:25;16.20;99.90
20795;DHT22;28087;-33.874;151.240;2022-08-16T10:47:08;16.20;99.90
20795;DHT22;28087;-33.874;151.240;2022-08-16T10:49:48;16.20;99.90
20795;DHT22;28087;-33.874;151.240;2022-08-16T10:52:24;16.10;99.90
20795;DHT22;28087;-33.874;151.240;2022-08-16T10:55:03;16.10;99.90
20795;DHT22;28087;-33.874;151.240;2022-08-16T10:58:00;16.10;99.90
20795;DHT22;28087;-33.874;151.240;2022-08-16T11:00:42;16.00;99.90
20795;DHT22;28087;-33.874;151.240;2022-08-16T11:03:21;16.00;99.90
20795;DHT22;28087;-33.874;151.240;2022-08-16T11:06:17;16.00;99.90
20795;DHT22;28087;-33.874;151.240;2022-08-16T11:08:58;16.00;99.90
20795;DHT22;28087;-33.874;151.240;2022-08-16T11:11:55;15.90;99.90
20795;DHT22;28087;-33.874;151.240;2022-08-16T11:14:45;15.90;99.90
20795;DHT22;28087;-33.874;151.240;2022-08-16T11:17:41;15.80;99.90
20795;DHT22;28087;-33.874;151.240;2022-08-16T11:20:43;15.80;99.90
20795;DHT22;28087;-33.874;151.240;2022-08-16T11:23:21;15.80;99.90
20795;DHT22;28087;-33.874;151.240;2022-08-16T11:26:00;15.80;99.90
20795;DHT22;28087;-33.874;151.240;2022-08-16T11:28:56;15.80;99.90
20795;DHT22;28087;-33.874;151.240;2022-08-16T11:31:49;15.70;99.90
20795;DHT22;28087;-33.874;151.240;2022-08-16T11:34:25;15.70;99.90
20795;DHT22;28087;-33.874;151.240;2022-08-16T11:37:25;15.70;99.90
20795;DHT22;28087;-33.874;151.240;2022-08-16T11:40:24;15.60;99.90
20795;DHT22;28087;-33.874;151.240;2022-08-16T11:43:04;15.60;99.90
20795;DHT22;28087;-33.874;151.240;2022-08-16T11:45:41;15.60;99.90
20795;DHT22;28087;-33.874;151.240;2022-08-16T11:48:26;15.60;99.90
20795;DHT22;28087;-33.874;151.240;2022-08-16T11:51:05;15.50;99.90
20795;DHT22;28087;-33.874;151.240;2022-08-16T11:53:46;15.50;99.90
20795;DHT22;28087;-33.874;151.240;2022-08-16T11:56:25;15.40;99.90
20795;DHT22;28087;-33.874;151.240;2022-08-16T11:59:22;15.40;99.90
20795;DHT22;28087;-33.874;151.240;2022-08-16T12:02:01;15.50;99.90
20795;DHT22;28087;-33.874;151.240;2022-08-16T12:04:58;15.40;99.90
20795;DHT22;28087;-33.874;151.240;2022-08-16T12:07:36;15.40;99.90
20795;DHT22;28087;-33.874;151.240;2022-08-16T12:10:17;15.40;99.90
20795;DHT22;28087;-33.874;151.240;2022-08-16T12:12:58;15.40;99.90
20795;DHT22;28087;-33.874;151.240;2022-08-16T12:15:34;15.30;99.90
20795;DHT22;28087;-33.874;151.240;2022-08-16T12:18:13;15.30;99.90
20795;DHT22;28087;-33.874;151.240;2022-08-16T12:20:51;15.30;99.90
20795;DHT22;28087;-33.874;151.240;2022-08-16T12:23:30;15.30;99.90
20795;DHT22;28087;-33.874;151.240;2022-08-16T12:26:07;15.20;99.90
20795;DHT22;28087;-33.874;151.240;2022-08-16T12:28:44;15.20;99.90
20795;DHT22;28087;-33.874;151.240;2022-08-16T12:31:25;15.10;99.90
20795;DHT22;28087;-33.874;151.240;2022-08-16T12:34:01;15.10;99.90
20795;DHT22;28087;-33.874;151.240;2022-08-16T12:36:49;15.10;99.90
20795;DHT22;28087;-33.874;151.240;2022-08-16T12:39:26;15.10;99.90
20795;DHT22;28087;-33.874;151.240;2022-08-16T12:42:05;15.10;99.90
20795;DHT22;28087;-33.874;151.240;2022-08-16T12:44:48;15.10;99.90
20795;DHT22;28087;-33.874;151.240;2022-08-16T12:47:24;15.10;99.90
20795;DHT22;28087;-33.874;151.240;2022-08-16T12:50:17;15.00;99.90
20795;DHT22;28087;-33.874;151.240;2022-08-16T12:53:03;15.00;99.90
20795;DHT22;28087;-33.874;151.240;2022-08-16T12:55:41;15.00;99.90
20795;DHT22;28087;-33.874;151.240;2022-08-16T12:58:20;15.00;99.90
20795;DHT22;28087;-33.874;151.240;2022-08-16T13:01:19;15.00;99.90
20795;DHT22;28087;-33.874;151.240;2022-08-16T13:03:59;14.90;99.90
20795;DHT22;28087;-33.874;151.240;2022-08-16T13:06:51;14.90;99.90
20795;DHT22;28087;-33.874;151.240;2022-08-16T13:09:29;14.90;99.90
20795;DHT22;28087;-33.874;151.240;2022-08-16T13:12:12;14.80;99.90
20795;DHT22;28087;-33.874;151.240;2022-08-16T13:14:57;14.80;99.90
20795;DHT22;28087;-33.874;151.240;2022-08-16T13:17:33;14.80;99.90
20795;DHT22;28087;-33.874;151.240;2022-08-16T13:20:15;14.70;99.90
20795;DHT22;28087;-33.874;151.240;2022-08-16T13:22:59;14.70;99.90
20795;DHT22;28087;-33.874;151.240;2022-08-16T13:25:41;14.70;99.90
20795;DHT22;28087;-33.874;151.240;2022-08-16T13:28:20;14.70;99.90
20795;DHT22;28087;-33.874;151.240;2022-08-16T13:31:00;14.60;99.90
20795;DHT22;28087;-33.874;151.240;2022-08-16T13:33:38;14.60;99.90
20795;DHT22;28087;-33.874;151.240;2022-08-16T13:36:16;14.60;99.90
20795;DHT22;28087;-33.874;151.240;2022-08-16T13:39:12;14.60;99.90
20795;DHT22;28087;-33.874;151.240;2022-08-16T13:41:51;14.60;99.90
20795;DHT22;28087;-33.874;151.240;2022-08-16T13:44:29;14.60;99.90
20795;DHT22;28087;-33.874;151.240;2022-08-16T13:47:27;14.60;99.90
20795;DHT22;28087;-33.874;151.240;2022-08-16T13:50:04;14.60;99.90
20795;DHT22;28087;-33.874;151.240;2022-08-16T13:52:43;14.50;99.90
20795;DHT22;28087;-33.874;151.240;2022-08-16T13:55:26;14.60;99.90
20795;DHT22;28087;-33.874;151.240;2022-08-16T13:58:04;14.50;99.90
20795;DHT22;28087;-33.874;151.240;2022-08-16T14:01:01;14.50;99.90
20795;DHT22;28087;-33.874;151.240;2022-08-16T14:03:42;14.40;99.90
20795;DHT22;28087;-33.874;151.240;2022-08-16T14:06:25;14.40;99.90
20795;DHT22;28087;-33.874;151.240;2022-08-16T14:09:02;14.40;99.90
20795;DHT22;28087;-33.874;151.240;2022-08-16T14:11:39;14.40;99.90
20795;DHT22;28087;-33.874;151.240;2022-08-16T14:14:17;14.30;99.90
20795;DHT22;28087;-33.874;151.240;2022-08-16T14:17:00;14.30;99.90
20795;DHT22;28087;-33.874;151.240;2022-08-16T14:19:42;14.30;99.90
20795;DHT22;28087;-33.874;151.240;2022-08-16T14:22:20;14.30;99.90
20795;DHT22;28087;-33.874;151.240;2022-08-16T14:25:05;14.30;99.90
20795;DHT22;28087;-33.874;151.240;2022-08-16T14:27:49;14.30;99.90
20795;DHT22;28087;-33.874;151.240;2022-08-16T14:30:26;14.30;99.90
20795;DHT22;28087;-33.874;151.240;2022-08-16T14:33:04;14.40;99.90
20795;DHT22;28087;-33.874;151.240;2022-08-16T14:35:43;14.30;99.90
20795;DHT22;28087;-33.874;151.240;2022-08-16T14:38:22;14.20;99.90
20795;DHT22;28087;-33.874;151.240;2022-08-16T14:41:10;14.20;99.90
20795;DHT22;28087;-33.874;151.240;2022-08-16T14:43:46;14.20;99.90
20795;DHT22;28087;-33.874;151.240;2022-08-16T14:46:24;14.20;99.90
20795;DHT22;28087;-33.874;151.240;2022-08-16T14:49:01;14.20;99.90
20795;DHT22;28087;-33.874;151.240;2022-08-16T14:51:42;14.20;99.90
20795;DHT22;28087;-33.874;151.240;2022-08-16T14:54:24;14.20;99.90
20795;DHT22;28087;-33.874;151.240;2022-08-16T14:57:03;14.20;99.90
20795;DHT22;28087;-33.874;151.240;2022-08-16T14:59:41;14.20;99.90
20795;DHT22;28087;-33.874;151.240;2022-08-16T15:02:21;14.20;99.90
20795;DHT22;28087;-33.874;151.240;2022-08-16T15:05:06;14.20;99.90
20795;DHT22;28087;-33.874;151.240;2022-08-16T15:07:47;14.20;99.90
20795;DHT22;28087;-33.874;151.240;2022-08-16T15:10:24;14.20;99.90
20795;DHT22;28087;-33.874;151.240;2022-08-16T15:13:05;14.20;99.90
20795;DHT22;28087;-33.874;151.240;2022-08-16T15:15:43;14.20;99.90
20795;DHT22;28087;-33.874;151.240;2022-08-16T15:18:29;14.10;99.90
20795;DHT22;28087;-33.874;151.240;2022-08-16T15:21:07;14.10;99.90
20795;DHT22;28087;-33.874;151.240;2022-08-16T15:23:47;14.10;99.90
20795;DHT22;28087;-33.874;151.240;2022-08-16T15:26:25;14.00;99.90
20795;DHT22;28087;-33.874;151.240;2022-08-16T15:29:15;14.00;99.90
20795;DHT22;28087;-33.874;151.240;2022-08-16T15:31:53;14.00;99.90
20795;DHT22;28087;-33.874;151.240;2022-08-16T15:34:33;14.00;99.90
20795;DHT22;28087;-33.874;151.240;2022-08-16T15:37:17;14.00;99.90
20795;DHT22;28087;-33.874;151.240;2022-08-16T15:40:17;14.10;99.90
20795;DHT22;28087;-33.874;151.240;2022-08-16T15:43:05;14.00;99.90
20795;DHT22;28087;-33.874;151.240;2022-08-16T15:45:46;14.00;99.90
20795;DHT22;28087;-33.874;151.240;2022-08-16T15:48:40;14.00;99.90
20795;DHT22;28087;-33.874;151.240;2022-08-16T15:51:17;14.00;99.90
20795;DHT22;28087;-33.874;151.240;2022-08-16T15:53:54;14.00;99.90
20795;DHT22;28087;-33.874;151.240;2022-08-16T15:56:53;14.00;99.90
20795;DHT22;28087;-33.874;151.240;2022-08-16T15:59:43;14.00;99.90
20795;DHT22;28087;-33.874;151.240;2022-08-16T16:02:42;13.90;99.90
20795;DHT22;28087;-33.874;151.240;2022-08-16T16:05:20;13.90;99.90
20795;DHT22;28087;-33.874;151.240;2022-08-16T16:07:56;13.90;99.90
20795;DHT22;28087;-33.874;151.240;2022-08-16T16:10:43;13.80;99.90
20795;DHT22;28087;-33.874;151.240;2022-08-16T16:13:27;13.80;99.90
20795;DHT22;28087;-33.874;151.240;2022-08-16T16:16:09;13.80;99.90
20795;DHT22;28087;-33.874;151.240;2022-08-16T16:18:49;13.80;99.90
20795;DHT22;28087;-33.874;151.240;2022-08-16T16:21:26;13.80;99.90
20795;DHT22;28087;-33.874;151.240;2022-08-16T16:24:06;13.80;99.90
20795;DHT22;28087;-33.874;151.240;2022-08-16T16:26:54;13.70;99.90
20795;DHT22;28087;-33.874;151.240;2022-08-16T16:29:34;13.70;99.90
20795;DHT22;28087;-33.874;151.240;2022-08-16T16:32:11;13.70;99.90
20795;DHT22;28087;-33.874;151.240;2022-08-16T16:35:06;13.70;99.90
20795;DHT22;28087;-33.874;151.240;2022-08-16T16:37:43;13.70;99.90
20795;DHT22;28087;-33.874;151.240;2022-08-16T16:40:22;13.70;99.90
20795;DHT22;28087;-33.874;151.240;2022-08-16T16:43:05;13.70;99.90
20795;DHT22;28087;-33.874;151.240;2022-08-16T16:45:48;13.70;99.90
20795;DHT22;28087;-33.874;151.240;2022-08-16T16:48:26;13.70;99.90
20795;DHT22;28087;-33.874;151.240;2022-08-16T16:51:06;13.70;99.90
20795;DHT22;28087;-33.874;151.240;2022-08-16T16:53:48;13.70;99.90